sensor_id;sensor_type;location;lat;lon;timestamp;pressure;altitude;pressure_sealevel;temperature;humidity
75945;BME280;64628;50.104;14.614;2023-02-24T00:01:58;98027.54;;;11.28;45.38
75945;BME280;64628;50.104;14.614;2023-02-24T00:04:22;98024.97;;;11.23;45.51
75945;BME280;64628;50.104;14.614;2023-02-24T00:06:52;98020.56;;;11.20;45.50
75945;BME280;64628;50.104;14.614;2023-02-24T00:09:17;98020.04;;;11.41;45.69
75945;BME280;64628;50.104;14.614;2023-02-24T00:11:39;98018.30;;;11.16;45.89
75945;BME280;64628;50.104;14.614;2023-02-24T00:14:04;98018.37;;;11.13;46.06
75945;BME280;64628;50.104;14.614;2023-02-24T00:16:29;98014.10;;;11.12;46.08
75945;BME280;64628;50.104;14.614;2023-02-24T00:18:54;98008.56;;;11.16;46.01
75945;BME280;64628;50.104;14.614;2023-02-24T00:21:19;98004.47;;;11.60;46.05
75945;BME280;64628;50.104;14.614;2023-02-24T00:23:46;98001.81;;;11.05;45.98
75945;BME280;64628;50.104;14.614;2023-02-24T00:26:12;97999.93;;;11.23;46.03
75945;BME280;64628;50.104;14.614;2023-02-24T00:28:36;98001.37;;;11.22;45.98
75945;BME280;64628;50.104;14.614;2023-02-24T00:31:04;98003.32;;;10.92;46.21
75945;BME280;64628;50.104;14.614;2023-02-24T00:33:26;98000.75;;;11.39;46.29
75945;BME280;64628;50.104;14.614;2023-02-24T00:35:51;98005.70;;;11.31;46.41
75945;BME280;64628;50.104;14.614;2023-02-24T00:38:17;98001.28;;;10.78;46.53
75945;BME280;64628;50.104;14.614;2023-02-24T00:40:43;97998.70;;;11.15;46.70
75945;BME280;64628;50.104;14.614;2023-02-24T00:43:08;97996.69;;;11.06;46.41
75945;BME280;64628;50.104;14.614;2023-02-24T00:45:34;97992.44;;;10.74;46.55
75945;BME280;64628;50.104;14.614;2023-02-24T00:47:58;97986.24;;;10.96;46.62
75945;BME280;64628;50.104;14.614;2023-02-24T00:50:23;97986.24;;;11.04;46.62
75945;BME280;64628;50.104;14.614;2023-02-24T00:52:49;97986.00;;;10.47;46.83
75945;BME280;64628;50.104;14.614;2023-02-24T00:55:15;97983.86;;;10.89;46.75
75945;BME280;64628;50.104;14.614;2023-02-24T00:57:41;97981.45;;;10.86;46.77
75945;BME280;64628;50.104;14.614;2023-02-24T01:00:08;97978.19;;;10.68;46.96
75945;BME280;64628;50.104;14.614;2023-02-24T01:02:32;97976.40;;;10.96;46.99
75945;BME280;64628;50.104;14.614;2023-02-24T01:04:58;97974.63;;;10.96;47.08
75945;BME280;64628;50.104;14.614;2023-02-24T01:07:23;97970.11;;;11.12;46.89
75945;BME280;64628;50.104;14.614;2023-02-24T01:09:49;97963.76;;;11.14;46.96
75945;BME280;64628;50.104;14.614;2023-02-24T01:12:13;97963.83;;;11.17;47.00
75945;BME280;64628;50.104;14.614;2023-02-24T01:14:39;97960.54;;;11.04;46.91
75945;BME280;64628;50.104;14.614;2023-02-24T01:17:05;97959.87;;;10.69;47.26
75945;BME280;64628;50.104;14.614;2023-02-24T01:19:31;97954.30;;;10.68;47.30
75945;BME280;64628;50.104;14.614;2023-02-24T01:21:55;97950.54;;;10.77;47.19
75945;BME280;64628;50.104;14.614;2023-02-24T01:24:21;97948.49;;;10.94;47.31
75945;BME280;64628;50.104;14.614;2023-02-24T01:26:46;97942.98;;;10.98;47.29
75945;BME280;64628;50.104;14.614;2023-02-24T01:29:12;97942.72;;;11.20;47.34
75945;BME280;64628;50.104;14.614;2023-02-24T01:31:39;97941.19;;;11.11;47.56
75945;BME280;64628;50.104;14.614;2023-02-24T01:34:03;97941.76;;;11.21;47.39
75945;BME280;64628;50.104;14.614;2023-02-24T01:36:29;97941.82;;;11.28;47.29
75945;BME280;64628;50.104;14.614;2023-02-24T01:38:55;97940.49;;;11.02;47.38
75945;BME280;64628;50.104;14.614;2023-02-24T01:41:22;97933.84;;;11.14;47.20
75945;BME280;64628;50.104;14.614;2023-02-24T01:43:55;97933.03;;;11.15;47.21
75945;BME280;64628;50.104;14.614;2023-02-24T01:46:11;97930.84;;;11.36;47.27
75945;BME280;64628;50.104;14.614;2023-02-24T01:48:36;97927.95;;;11.42;47.16
75945;BME280;64628;50.104;14.614;2023-02-24T01:51:02;97923.97;;;11.46;47.08
75945;BME280;64628;50.104;14.614;2023-02-24T01:53:28;97923.96;;;10.96;47.13
75945;BME280;64628;50.104;14.614;2023-02-24T01:55:52;97917.27;;;11.12;46.85
75945;BME280;64628;50.104;14.614;2023-02-24T01:58:21;97919.71;;;11.08;46.91
75945;BME280;64628;50.104;14.614;2023-02-24T02:00:43;97915.28;;;11.19;46.74
75945;BME280;64628;50.104;14.614;2023-02-24T02:03:17;97918.92;;;11.23;46.65
75945;BME280;64628;50.104;14.614;2023-02-24T02:05:37;97916.63;;;11.68;46.70
75945;BME280;64628;50.104;14.614;2023-02-24T02:08:00;97914.86;;;10.95;46.71
75945;BME280;64628;50.104;14.614;2023-02-24T02:10:25;97913.09;;;11.43;46.67
75945;BME280;64628;50.104;14.614;2023-02-24T02:12:50;97911.84;;;11.11;46.77
75945;BME280;64628;50.104;14.614;2023-02-24T02:15:17;97912.77;;;11.24;46.55
75945;BME280;64628;50.104;14.614;2023-02-24T02:17:50;97908.60;;;11.38;46.71
75945;BME280;64628;50.104;14.614;2023-02-24T02:20:21;97902.19;;;11.31;46.83
75945;BME280;64628;50.104;14.614;2023-02-24T02:22:42;97897.54;;;11.04;46.86
75945;BME280;64628;50.104;14.614;2023-02-24T02:25:03;97898.71;;;11.30;46.83
75945;BME280;64628;50.104;14.614;2023-02-24T02:27:32;97898.86;;;11.18;47.06
75945;BME280;64628;50.104;14.614;2023-02-24T02:29:56;97898.24;;;10.94;47.04
75945;BME280;64628;50.104;14.614;2023-02-24T02:34:46;97894.35;;;11.07;46.85
75945;BME280;64628;50.104;14.614;2023-02-24T02:37:09;97891.56;;;11.04;46.93
75945;BME280;64628;50.104;14.614;2023-02-24T02:39:34;97887.99;;;11.09;46.79
75945;BME280;64628;50.104;14.614;2023-02-24T02:42:01;97889.64;;;11.22;46.60
75945;BME280;64628;50.104;14.614;2023-02-24T02:44:24;97886.89;;;11.19;46.61
75945;BME280;64628;50.104;14.614;2023-02-24T02:46:48;97888.17;;;11.47;46.53
75945;BME280;64628;50.104;14.614;2023-02-24T02:49:15;97883.41;;;11.67;46.58
75945;BME280;64628;50.104;14.614;2023-02-24T02:51:40;97880.87;;;11.23;46.52
75945;BME280;64628;50.104;14.614;2023-02-24T02:54:06;97877.49;;;11.15;46.62
75945;BME280;64628;50.104;14.614;2023-02-24T02:56:32;97875.85;;;11.65;46.52
75945;BME280;64628;50.104;14.614;2023-02-24T02:58:55;97873.45;;;11.15;46.53
75945;BME280;64628;50.104;14.614;2023-02-24T03:01:21;97871.58;;;11.55;46.69
75945;BME280;64628;50.104;14.614;2023-02-24T03:03:46;97873.88;;;11.19;46.82
75945;BME280;64628;50.104;14.614;2023-02-24T03:06:12;97870.04;;;11.55;46.65
75945;BME280;64628;50.104;14.614;2023-02-24T03:08:38;97870.38;;;11.33;46.61
75945;BME280;64628;50.104;14.614;2023-02-24T03:11:02;97866.97;;;11.04;46.64
75945;BME280;64628;50.104;14.614;2023-02-24T03:13:29;97866.61;;;10.94;46.75
75945;BME280;64628;50.104;14.614;2023-02-24T03:15:53;97862.31;;;11.26;46.66
75945;BME280;64628;50.104;14.614;2023-02-24T03:18:21;97862.88;;;11.12;46.43
75945;BME280;64628;50.104;14.614;2023-02-24T03:20:45;97862.50;;;10.97;46.65
75945;BME280;64628;50.104;14.614;2023-02-24T03:23:11;97858.25;;;11.23;46.52
75945;BME280;64628;50.104;14.614;2023-02-24T03:25:37;97859.41;;;10.94;46.61
75945;BME280;64628;50.104;14.614;2023-02-24T03:28:01;97854.58;;;11.25;46.45
75945;BME280;64628;50.104;14.614;2023-02-24T03:30:28;97849.43;;;11.09;46.22
75945;BME280;64628;50.104;14.614;2023-02-24T03:32:54;97846.07;;;11.03;46.34
75945;BME280;64628;50.104;14.614;2023-02-24T03:35:18;97841.99;;;11.30;46.25
75945;BME280;64628;50.104;14.614;2023-02-24T03:37:42;97838.60;;;10.93;46.43
75945;BME280;64628;50.104;14.614;2023-02-24T03:40:09;97837.42;;;11.25;46.30
75945;BME280;64628;50.104;14.614;2023-02-24T03:42:34;97832.00;;;11.23;46.35
75945;BME280;64628;50.104;14.614;2023-02-24T03:44:57;97827.68;;;11.38;46.44
75945;BME280;64628;50.104;14.614;2023-02-24T03:47:24;97828.54;;;11.23;46.28
75945;BME280;64628;50.104;14.614;2023-02-24T03:49:48;97827.06;;;11.19;46.33
75945;BME280;64628;50.104;14.614;2023-02-24T03:52:20;97821.86;;;11.44;46.28
75945;BME280;64628;50.104;14.614;2023-02-24T03:54:50;97822.92;;;10.98;46.22
75945;BME280;64628;50.104;14.614;2023-02-24T03:57:15;97821.70;;;11.20;46.26
75945;BME280;64628;50.104;14.614;2023-02-24T03:59:37;97826.03;;;11.07;46.06
75945;BME280;64628;50.104;14.614;2023-02-24T04:01:59;97826.43;;;10.90;46.32
75945;BME280;64628;50.104;14.614;2023-02-24T04:04:26;97821.25;;;11.23;46.20
75945;BME280;64628;50.104;14.614;2023-02-24T04:06:51;97819.57;;;11.42;46.26
75945;BME280;64628;50.104;14.614;2023-02-24T04:09:15;97817.62;;;10.79;46.52
75945;BME280;64628;50.104;14.614;2023-02-24T04:11:41;97814.71;;;11.19;46.66
75945;BME280;64628;50.104;14.614;2023-02-24T04:14:06;97810.78;;;11.23;46.55
75945;BME280;64628;50.104;14.614;2023-02-24T04:16:30;97811.92;;;11.34;46.40
75945;BME280;64628;50.104;14.614;2023-02-24T04:18:56;97808.12;;;11.41;46.26
75945;BME280;64628;50.104;14.614;2023-02-24T04:21:20;97806.83;;;10.89;46.33
75945;BME280;64628;50.104;14.614;2023-02-24T04:23:44;97805.47;;;11.06;46.02
75945;BME280;64628;50.104;14.614;2023-02-24T04:26:12;97806.68;;;11.00;46.10
75945;BME280;64628;50.104;14.614;2023-02-24T04:28:35;97804.10;;;11.02;46.06
75945;BME280;64628;50.104;14.614;2023-02-24T04:31:03;97807.37;;;11.45;46.15
75945;BME280;64628;50.104;14.614;2023-02-24T04:33:26;97809.74;;;10.90;46.28
75945;BME280;64628;50.104;14.614;2023-02-24T04:35:52;97807.93;;;11.03;46.07
75945;BME280;64628;50.104;14.614;2023-02-24T04:38:17;97810.34;;;11.16;46.24
75945;BME280;64628;50.104;14.614;2023-02-24T04:40:43;97803.75;;;11.27;46.04
75945;BME280;64628;50.104;14.614;2023-02-24T04:43:08;97799.61;;;11.11;45.88
75945;BME280;64628;50.104;14.614;2023-02-24T04:45:34;97799.42;;;10.98;46.09
75945;BME280;64628;50.104;14.614;2023-02-24T04:48:01;97794.75;;;10.97;46.14
75945;BME280;64628;50.104;14.614;2023-02-24T04:50:28;97794.50;;;11.01;46.05
75945;BME280;64628;50.104;14.614;2023-02-24T04:52:53;97794.41;;;11.13;46.27
75945;BME280;64628;50.104;14.614;2023-02-24T04:55:17;97794.45;;;10.79;46.45
75945;BME280;64628;50.104;14.614;2023-02-24T04:57:42;97792.83;;;10.71;46.57
75945;BME280;64628;50.104;14.614;2023-02-24T05:00:08;97782.38;;;11.06;46.41
75945;BME280;64628;50.104;14.614;2023-02-24T05:02:33;97782.18;;;10.90;46.25
75945;BME280;64628;50.104;14.614;2023-02-24T05:04:58;97785.76;;;11.37;46.26
75945;BME280;64628;50.104;14.614;2023-02-24T05:07:24;97779.21;;;10.79;46.38
75945;BME280;64628;50.104;14.614;2023-02-24T05:09:49;97776.15;;;10.80;46.31
75945;BME280;64628;50.104;14.614;2023-02-24T05:12:15;97780.65;;;11.02;46.40
75945;BME280;64628;50.104;14.614;2023-02-24T05:14:41;97774.10;;;10.99;46.41
75945;BME280;64628;50.104;14.614;2023-02-24T05:17:06;97771.66;;;10.66;46.60
75945;BME280;64628;50.104;14.614;2023-02-24T05:19:32;97767.97;;;11.16;46.61
75945;BME280;64628;50.104;14.614;2023-02-24T05:21:58;97766.26;;;11.19;46.57
75945;BME280;64628;50.104;14.614;2023-02-24T05:24:23;97762.22;;;10.97;46.54
75945;BME280;64628;50.104;14.614;2023-02-24T05:26:48;97761.43;;;10.90;46.69
75945;BME280;64628;50.104;14.614;2023-02-24T05:29:13;97768.94;;;10.76;46.94
75945;BME280;64628;50.104;14.614;2023-02-24T05:31:39;97767.64;;;10.92;46.69
75945;BME280;64628;50.104;14.614;2023-02-24T05:34:06;97759.99;;;11.19;46.62
75945;BME280;64628;50.104;14.614;2023-02-24T05:36:32;97759.16;;;11.27;46.40
75945;BME280;64628;50.104;14.614;2023-02-24T05:38:56;97756.50;;;10.69;46.56
75945;BME280;64628;50.104;14.614;2023-02-24T05:41:22;97760.13;;;10.71;46.53
75945;BME280;64628;50.104;14.614;2023-02-24T05:43:48;97760.29;;;11.13;46.67
75945;BME280;64628;50.104;14.614;2023-02-24T05:46:13;97757.32;;;11.11;46.62
75945;BME280;64628;50.104;14.614;2023-02-24T05:48:38;97753.92;;;10.61;46.65
75945;BME280;64628;50.104;14.614;2023-02-24T05:51:03;97754.29;;;10.96;46.90
75945;BME280;64628;50.104;14.614;2023-02-24T05:53:28;97749.58;;;11.22;46.85
75945;BME280;64628;50.104;14.614;2023-02-24T05:55:54;97745.90;;;10.88;46.58
75945;BME280;64628;50.104;14.614;2023-02-24T05:58:19;97740.77;;;11.14;46.50
75945;BME280;64628;50.104;14.614;2023-02-24T06:00:44;97739.78;;;11.25;46.38
75945;BME280;64628;50.104;14.614;2023-02-24T06:03:09;97734.33;;;10.79;46.31
75945;BME280;64628;50.104;14.614;2023-02-24T06:05:35;97732.56;;;11.32;46.18
75945;BME280;64628;50.104;14.614;2023-02-24T06:08:01;97738.62;;;11.15;46.11
75945;BME280;64628;50.104;14.614;2023-02-24T06:10:32;97739.00;;;10.97;45.99
75945;BME280;64628;50.104;14.614;2023-02-24T06:12:52;97744.00;;;11.23;45.97
75945;BME280;64628;50.104;14.614;2023-02-24T06:15:18;97742.15;;;11.04;45.88
75945;BME280;64628;50.104;14.614;2023-02-24T06:17:43;97743.81;;;11.05;45.88
75945;BME280;64628;50.104;14.614;2023-02-24T06:20:10;97742.13;;;11.28;45.86
75945;BME280;64628;50.104;14.614;2023-02-24T06:22:34;97740.64;;;11.46;45.53
75945;BME280;64628;50.104;14.614;2023-02-24T06:25:00;97742.82;;;11.18;45.59
75945;BME280;64628;50.104;14.614;2023-02-24T06:27:25;97743.92;;;11.13;45.72
75945;BME280;64628;50.104;14.614;2023-02-24T06:29:52;97740.61;;;11.27;45.44
75945;BME280;64628;50.104;14.614;2023-02-24T06:32:16;97742.68;;;11.12;45.68
75945;BME280;64628;50.104;14.614;2023-02-24T06:34:41;97737.71;;;11.63;45.63
75945;BME280;64628;50.104;14.614;2023-02-24T06:37:10;97730.21;;;11.15;45.71
75945;BME280;64628;50.104;14.614;2023-02-24T06:39:33;97726.48;;;11.28;45.44
75945;BME280;64628;50.104;14.614;2023-02-24T06:41:58;97724.71;;;11.34;45.36
75945;BME280;64628;50.104;14.614;2023-02-24T06:44:23;97726.04;;;11.29;45.46
75945;BME280;64628;50.104;14.614;2023-02-24T06:46:48;97729.08;;;11.32;45.43
75945;BME280;64628;50.104;14.614;2023-02-24T06:49:13;97726.94;;;11.45;45.62
75945;BME280;64628;50.104;14.614;2023-02-24T06:51:39;97726.67;;;11.15;45.75
75945;BME280;64628;50.104;14.614;2023-02-24T06:54:05;97722.13;;;11.32;45.94
75945;BME280;64628;50.104;14.614;2023-02-24T06:56:31;97721.44;;;11.60;45.91
75945;BME280;64628;50.104;14.614;2023-02-24T06:58:55;97722.89;;;11.37;45.45
75945;BME280;64628;50.104;14.614;2023-02-24T07:01:23;97720.71;;;11.79;45.17
75945;BME280;64628;50.104;14.614;2023-02-24T07:03:47;97717.81;;;11.58;45.13
75945;BME280;64628;50.104;14.614;2023-02-24T07:06:12;97713.43;;;11.56;44.85
75945;BME280;64628;50.104;14.614;2023-02-24T07:08:37;97709.81;;;11.85;44.77
75945;BME280;64628;50.104;14.614;2023-02-24T07:11:03;97708.26;;;11.91;44.65
75945;BME280;64628;50.104;14.614;2023-02-24T07:13:28;97705.72;;;11.71;44.54
75945;BME280;64628;50.104;14.614;2023-02-24T07:15:53;97699.75;;;11.99;44.39
75945;BME280;64628;50.104;14.614;2023-02-24T07:18:19;97702.77;;;12.15;44.24
75945;BME280;64628;50.104;14.614;2023-02-24T07:20:44;97706.69;;;12.06;44.05
75945;BME280;64628;50.104;14.614;2023-02-24T07:23:10;97708.82;;;12.31;43.72
75945;BME280;64628;50.104;14.614;2023-02-24T07:25:36;97708.80;;;12.50;43.42
75945;BME280;64628;50.104;14.614;2023-02-24T07:28:01;97706.48;;;12.38;43.58
75945;BME280;64628;50.104;14.614;2023-02-24T07:30:27;97704.05;;;12.73;43.38
75945;BME280;64628;50.104;14.614;2023-02-24T07:32:52;97701.95;;;12.53;43.29
75945;BME280;64628;50.104;14.614;2023-02-24T07:35:17;97698.29;;;12.33;43.33
75945;BME280;64628;50.104;14.614;2023-02-24T07:37:42;97694.46;;;12.53;43.29
75945;BME280;64628;50.104;14.614;2023-02-24T07:40:11;97683.74;;;12.35;43.18
75945;BME280;64628;50.104;14.614;2023-02-24T07:42:34;97678.53;;;12.67;43.09
75945;BME280;64628;50.104;14.614;2023-02-24T07:44:59;97681.21;;;12.56;43.29
75945;BME280;64628;50.104;14.614;2023-02-24T07:47:24;97677.61;;;12.41;43.28
75945;BME280;64628;50.104;14.614;2023-02-24T07:49:49;97679.65;;;12.78;43.02
75945;BME280;64628;50.104;14.614;2023-02-24T07:52:15;97674.96;;;12.87;43.25
75945;BME280;64628;50.104;14.614;2023-02-24T07:54:41;97668.77;;;12.61;43.09
75945;BME280;64628;50.104;14.614;2023-02-24T07:57:11;97665.05;;;13.06;42.65
75945;BME280;64628;50.104;14.614;2023-02-24T07:59:34;97662.71;;;13.00;42.46
75945;BME280;64628;50.104;14.614;2023-02-24T08:02:02;97660.64;;;12.91;42.12
75945;BME280;64628;50.104;14.614;2023-02-24T08:04:25;97656.94;;;13.05;42.17
75945;BME280;64628;50.104;14.614;2023-02-24T08:06:49;97653.19;;;13.08;42.11
75945;BME280;64628;50.104;14.614;2023-02-24T08:09:16;97643.92;;;13.08;42.03
75945;BME280;64628;50.104;14.614;2023-02-24T08:11:39;97639.03;;;13.03;41.84
75945;BME280;64628;50.104;14.614;2023-02-24T08:14:05;97636.51;;;13.24;41.43
75945;BME280;64628;50.104;14.614;2023-02-24T08:16:30;97638.81;;;13.33;41.58
75945;BME280;64628;50.104;14.614;2023-02-24T08:18:55;97635.99;;;13.26;41.52
75945;BME280;64628;50.104;14.614;2023-02-24T08:21:21;97640.02;;;13.04;41.85
75945;BME280;64628;50.104;14.614;2023-02-24T08:23:46;97633.27;;;13.14;41.59
75945;BME280;64628;50.104;14.614;2023-02-24T08:26:11;97639.53;;;13.08;41.80
75945;BME280;64628;50.104;14.614;2023-02-24T08:28:38;97643.25;;;12.96;41.95
75945;BME280;64628;50.104;14.614;2023-02-24T08:31:03;97642.13;;;12.89;41.67
75945;BME280;64628;50.104;14.614;2023-02-24T08:33:28;97639.23;;;13.22;41.72
75945;BME280;64628;50.104;14.614;2023-02-24T08:35:54;97633.48;;;12.95;41.38
75945;BME280;64628;50.104;14.614;2023-02-24T08:38:20;97628.60;;;13.06;41.63
75945;BME280;64628;50.104;14.614;2023-02-24T08:40:47;97624.56;;;12.97;41.52
75945;BME280;64628;50.104;14.614;2023-02-24T08:43:11;97616.41;;;13.14;40.99
75945;BME280;64628;50.104;14.614;2023-02-24T08:45:34;97613.15;;;14.16;39.37
75945;BME280;64628;50.104;14.614;2023-02-24T08:48:00;97610.73;;;14.55;38.88
75945;BME280;64628;50.104;14.614;2023-02-24T08:50:27;97609.72;;;14.42;38.44
75945;BME280;64628;50.104;14.614;2023-02-24T08:52:51;97611.41;;;14.31;38.60
75945;BME280;64628;50.104;14.614;2023-02-24T08:55:19;97607.50;;;13.95;38.58
75945;BME280;64628;50.104;14.614;2023-02-24T08:57:42;97606.88;;;13.98;38.70
75945;BME280;64628;50.104;14.614;2023-02-24T09:00:09;97603.50;;;13.71;38.84
75945;BME280;64628;50.104;14.614;2023-02-24T09:02:33;97599.63;;;14.13;38.29
75945;BME280;64628;50.104;14.614;2023-02-24T09:05:01;97597.93;;;14.11;37.95
75945;BME280;64628;50.104;14.614;2023-02-24T09:07:26;97596.99;;;14.14;37.86
75945;BME280;64628;50.104;14.614;2023-02-24T09:09:50;97592.36;;;14.15;36.95
75945;BME280;64628;50.104;14.614;2023-02-24T09:12:16;97590.10;;;14.54;36.63
75945;BME280;64628;50.104;14.614;2023-02-24T09:14:41;97587.17;;;14.73;36.59
75945;BME280;64628;50.104;14.614;2023-02-24T09:17:07;97581.86;;;14.91;36.13
75945;BME280;64628;50.104;14.614;2023-02-24T09:19:35;97586.53;;;14.54;36.07
75945;BME280;64628;50.104;14.614;2023-02-24T09:21:57;97584.07;;;15.35;35.43
75945;BME280;64628;50.104;14.614;2023-02-24T09:24:22;97577.12;;;14.91;35.11
75945;BME280;64628;50.104;14.614;2023-02-24T09:26:47;97576.92;;;14.66;35.65
75945;BME280;64628;50.104;14.614;2023-02-24T09:29:14;97575.17;;;15.54;34.82
75945;BME280;64628;50.104;14.614;2023-02-24T09:31:38;97568.46;;;16.13;33.43
75945;BME280;64628;50.104;14.614;2023-02-24T09:34:04;97562.56;;;16.47;32.58
75945;BME280;64628;50.104;14.614;2023-02-24T09:36:29;97560.26;;;17.25;31.44
75945;BME280;64628;50.104;14.614;2023-02-24T09:38:57;97557.94;;;17.63;30.15
75945;BME280;64628;50.104;14.614;2023-02-24T09:41:26;97552.34;;;17.70;30.01
75945;BME280;64628;50.104;14.614;2023-02-24T09:43:46;97557.05;;;16.78;31.21
75945;BME280;64628;50.104;14.614;2023-02-24T09:46:13;97552.08;;;16.05;31.90
75945;BME280;64628;50.104;14.614;2023-02-24T09:48:40;97546.44;;;15.64;32.64
75945;BME280;64628;50.104;14.614;2023-02-24T09:51:03;97542.62;;;15.82;33.17
75945;BME280;64628;50.104;14.614;2023-02-24T09:53:30;97538.47;;;15.43;33.08
75945;BME280;64628;50.104;14.614;2023-02-24T09:55:58;97538.48;;;15.30;33.20
75945;BME280;64628;50.104;14.614;2023-02-24T09:58:25;97533.75;;;15.26;33.09
75945;BME280;64628;50.104;14.614;2023-02-24T10:00:52;97528.67;;;15.18;32.96
75945;BME280;64628;50.104;14.614;2023-02-24T10:03:13;97527.55;;;15.20;32.85
75945;BME280;64628;50.104;14.614;2023-02-24T10:05:41;97522.96;;;14.98;33.73
75945;BME280;64628;50.104;14.614;2023-02-24T10:08:01;97517.79;;;15.11;34.22
75945;BME280;64628;50.104;14.614;2023-02-24T10:10:29;97517.38;;;15.21;34.43
75945;BME280;64628;50.104;14.614;2023-02-24T10:12:57;97514.91;;;15.06;35.45
75945;BME280;64628;50.104;14.614;2023-02-24T10:15:19;97517.42;;;15.12;36.13
75945;BME280;64628;50.104;14.614;2023-02-24T10:17:45;97518.26;;;15.27;36.24
75945;BME280;64628;50.104;14.614;2023-02-24T10:20:15;97510.05;;;15.36;36.05
75945;BME280;64628;50.104;14.614;2023-02-24T10:22:39;97507.06;;;16.32;34.31
75945;BME280;64628;50.104;14.614;2023-02-24T10:25:04;97495.56;;;16.65;33.37
75945;BME280;64628;50.104;14.614;2023-02-24T10:28:44;97483.68;;;15.19;36.07
75945;BME280;64628;50.104;14.614;2023-02-24T12:20:04;97318.37;;;6.33;45.58
75945;BME280;64628;50.104;14.614;2023-02-24T12:22:33;97309.84;;;9.36;38.71
75945;BME280;64628;50.104;14.614;2023-02-24T12:24:52;97309.88;;;11.53;34.47
75945;BME280;64628;50.104;14.614;2023-02-24T12:27:29;97296.57;;;12.41;32.31
75945;BME280;64628;50.104;14.614;2023-02-24T12:29:52;97288.38;;;13.27;31.16
75945;BME280;64628;50.104;14.614;2023-02-24T12:32:17;97283.55;;;13.33;30.54
75945;BME280;64628;50.104;14.614;2023-02-24T12:34:41;97285.07;;;13.72;30.36
75945;BME280;64628;50.104;14.614;2023-02-24T12:37:21;97287.88;;;13.68;31.32
75945;BME280;64628;50.104;14.614;2023-02-24T12:39:29;97285.10;;;13.40;33.78
75945;BME280;64628;50.104;14.614;2023-02-24T12:42:04;97277.13;;;13.42;33.49
75945;BME280;64628;50.104;14.614;2023-02-24T12:44:25;97269.20;;;13.55;33.05
75945;BME280;64628;50.104;14.614;2023-02-24T12:46:43;97256.74;;;13.31;33.07
75945;BME280;64628;50.104;14.614;2023-02-24T12:49:21;97247.88;;;13.38;33.55
75945;BME280;64628;50.104;14.614;2023-02-24T12:51:37;97245.99;;;13.70;32.82
75945;BME280;64628;50.104;14.614;2023-02-24T12:54:04;97243.32;;;13.85;32.88
75945;BME280;64628;50.104;14.614;2023-02-24T12:56:28;97243.80;;;14.15;32.49
75945;BME280;64628;50.104;14.614;2023-02-24T12:58:50;97236.73;;;14.51;31.74
75945;BME280;64628;50.104;14.614;2023-02-24T13:01:20;97232.19;;;14.07;31.23
75945;BME280;64628;50.104;14.614;2023-02-24T13:03:53;97229.07;;;14.29;31.24
75945;BME280;64628;50.104;14.614;2023-02-24T13:06:15;97221.08;;;14.26;31.13
75945;BME280;64628;50.104;14.614;2023-02-24T13:08:38;97214.19;;;14.73;31.36
75945;BME280;64628;50.104;14.614;2023-02-24T13:11:02;97204.04;;;15.04;30.41
75945;BME280;64628;50.104;14.614;2023-02-24T13:13:26;97198.42;;;14.51;30.40
75945;BME280;64628;50.104;14.614;2023-02-24T13:15:51;97198.87;;;14.74;30.24
75945;BME280;64628;50.104;14.614;2023-02-24T13:18:21;97204.38;;;14.45;30.37
75945;BME280;64628;50.104;14.614;2023-02-24T13:20:37;97200.66;;;14.31;30.57
75945;BME280;64628;50.104;14.614;2023-02-24T13:23:14;97206.45;;;14.01;30.93
75945;BME280;64628;50.104;14.614;2023-02-24T13:25:30;97195.78;;;13.98;31.67
75945;BME280;64628;50.104;14.614;2023-02-24T13:27:56;97197.41;;;13.96;32.66
75945;BME280;64628;50.104;14.614;2023-02-24T13:30:33;97193.17;;;13.83;33.26
75945;BME280;64628;50.104;14.614;2023-02-24T13:32:45;97189.62;;;13.86;33.35
75945;BME280;64628;50.104;14.614;2023-02-24T13:37:36;97176.76;;;13.73;33.22
75945;BME280;64628;50.104;14.614;2023-02-24T13:40:10;97174.05;;;13.74;33.31
75945;BME280;64628;50.104;14.614;2023-02-24T13:42:26;97170.86;;;13.32;33.71
75945;BME280;64628;50.104;14.614;2023-02-24T13:44:52;97167.97;;;13.28;33.43
75945;BME280;64628;50.104;14.614;2023-02-24T13:47:35;97162.39;;;13.43;33.34
75945;BME280;64628;50.104;14.614;2023-02-24T13:49:46;97158.20;;;13.13;33.15
75945;BME280;64628;50.104;14.614;2023-02-24T13:52:13;97150.79;;;13.49;33.02
75945;BME280;64628;50.104;14.614;2023-02-24T13:54:52;97151.22;;;13.59;32.69
75945;BME280;64628;50.104;14.614;2023-02-24T13:57:03;97145.51;;;13.01;32.68
75945;BME280;64628;50.104;14.614;2023-02-24T13:59:38;97144.95;;;13.09;32.48
75945;BME280;64628;50.104;14.614;2023-02-24T14:01:50;97145.83;;;13.64;32.29
75945;BME280;64628;50.104;14.614;2023-02-24T14:04:16;97131.79;;;13.61;31.31
75945;BME280;64628;50.104;14.614;2023-02-24T14:06:45;97137.16;;;13.58;31.18
75945;BME280;64628;50.104;14.614;2023-02-24T14:09:05;97127.33;;;13.67;31.00
75945;BME280;64628;50.104;14.614;2023-02-24T14:11:32;97126.95;;;13.54;31.08
75945;BME280;64628;50.104;14.614;2023-02-24T14:13:56;97127.99;;;13.78;31.27
75945;BME280;64628;50.104;14.614;2023-02-24T14:16:23;97128.02;;;13.70;31.52
75945;BME280;64628;50.104;14.614;2023-02-24T14:18:52;97121.71;;;13.79;30.93
75945;BME280;64628;50.104;14.614;2023-02-24T14:21:18;97121.04;;;13.62;31.24
75945;BME280;64628;50.104;14.614;2023-02-24T14:23:37;97122.33;;;13.73;31.27
75945;BME280;64628;50.104;14.614;2023-02-24T14:26:05;97115.49;;;13.49;31.52
75945;BME280;64628;50.104;14.614;2023-02-24T14:28:30;97109.78;;;13.30;31.88
75945;BME280;64628;50.104;14.614;2023-02-24T14:30:55;97102.75;;;13.50;31.30
75945;BME280;64628;50.104;14.614;2023-02-24T14:33:24;97105.47;;;12.83;31.69
75945;BME280;64628;50.104;14.614;2023-02-24T14:35:45;97092.11;;;13.06;31.30